Time;durP1;ratioP1;P1;durP2;ratioP2;P2;SDS_P1;SDS_P2;PMS_P1;PMS_P2;Temp;Humidity;BMP_temperature;BMP_pressure;BME280_temperature;BME280_humidity;BME280_pressure;Samples;Min_cycle;Max_cycle;Signal;HPM_P1;HPM_P2
2023/09/03 00:00:29;;;;;;;19.65;13.88;;;;;;;17.30;100.00;-18492.81;5027624;28;20049;-76
2023/09/03 00:02:55;;;;;;;20.77;14.18;;;;;;;17.15;100.00;-18488.88;5025908;28;20041;-76
2023/09/03 00:05:20;;;;;;;20.88;14.57;;;;;;;17.20;100.00;-18490.09;5026395;28;20045;-77
2023/09/03 00:07:46;;;;;;;18.85;13.65;;;;;;;17.12;100.00;-18488.19;5026347;28;20041;-76
2023/09/03 00:10:11;;;;;;;19.50;13.43;;;;;;;17.15;100.00;-18488.88;5018385;28;20096;-76
2023/09/03 00:12:37;;;;;;;20.05;14.13;;;;;;;17.27;100.00;-18492.16;5027009;28;20045;-76
2023/09/03 00:15:03;;;;;;;19.40;14.07;;;;;;;17.30;100.00;-18492.81;5009117;28;20038;-76
2023/09/03 00:17:28;;;;;;;19.70;13.88;;;;;;;17.24;100.00;-18491.31;5018767;28;20053;-76
2023/09/03 00:19:53;;;;;;;19.85;13.70;;;;;;;17.13;100.00;-18488.31;5026789;28;20037;-76
2023/09/03 00:22:19;;;;;;;18.55;13.20;;;;;;;17.11;100.00;-18487.91;5018535;28;20049;-77
2023/09/03 00:24:44;;;;;;;20.17;13.43;;;;;;;17.11;100.00;-18487.78;5024236;28;20041;-78
2023/09/03 00:27:09;;;;;;;18.02;12.93;;;;;;;17.11;100.00;-18487.91;5026094;28;20072;-78
2023/09/03 00:29:36;;;;;;;21.17;13.85;;;;;;;17.10;100.00;-18487.50;5008398;28;20547;-77
2023/09/03 00:32:02;;;;;;;20.65;14.00;;;;;;;17.05;100.00;-18486.13;5025515;28;20508;-78
2023/09/03 00:34:27;;;;;;;17.92;12.68;;;;;;;17.08;100.00;-18486.97;5008201;28;20111;-77
2023/09/03 00:36:53;;;;;;;21.52;13.75;;;;;;;17.22;100.00;-18490.78;5025000;28;20048;-77
2023/09/03 00:39:18;;;;;;;19.58;13.30;;;;;;;17.28;100.00;-18492.41;5026004;28;20053;-76
2023/09/03 00:41:45;;;;;;;19.13;13.10;;;;;;;17.28;100.00;-18492.41;5007385;28;20053;-78
2023/09/03 00:44:10;;;;;;;19.25;13.88;;;;;;;17.20;100.00;-18490.09;5025843;28;20037;-76
2023/09/03 00:46:36;;;;;;;20.63;14.07;;;;;;;17.12;100.00;-18488.06;5025605;28;20045;-77
2023/09/03 00:49:01;;;;;;;21.25;14.45;;;;;;;17.00;100.00;-18484.78;5023880;28;20045;-77
2023/09/03 00:51:28;;;;;;;24.42;13.93;;;;;;;17.09;100.00;-18487.22;5010558;28;20045;-77
2023/09/03 00:53:55;;;;;;;20.02;14.50;;;;;;;17.15;100.00;-18488.88;5026946;28;20100;-78
2023/09/03 00:56:21;;;;;;;20.77;14.30;;;;;;;17.06;100.00;-18486.56;5024675;28;20069;-77
2023/09/03 00:58:47;;;;;;;19.13;13.27;;;;;;;17.18;100.00;-18489.56;5019106;28;20126;-77
2023/09/03 01:01:13;;;;;;;20.73;13.98;;;;;;;17.08;100.00;-18487.09;5025716;28;20053;-77
2023/09/03 01:03:39;;;;;;;22.63;14.18;;;;;;;17.10;100.00;-18487.63;5008799;28;20037;-77
2023/09/03 01:06:06;;;;;;;20.23;14.25;;;;;;;16.97;100.00;-18484.09;5007201;28;20033;-77
2023/09/03 01:08:32;;;;;;;21.95;14.63;;;;;;;16.91;100.00;-18482.59;5008280;28;20049;-77
2023/09/03 01:10:57;;;;;;;24.45;14.80;;;;;;;16.98;100.00;-18484.22;5023781;28;20437;-77
2023/09/03 01:13:48;;;;;;;19.00;13.23;;;;;;;17.02;100.00;-18485.31;5024243;28;20083;-77
2023/09/03 01:16:23;;;;;;;23.38;12.90;;;;;;;16.87;100.00;-18481.50;4969945;28;20056;-77
2023/09/03 01:18:50;;;;;;;23.38;14.98;;;;;;;16.92;100.00;-18482.88;5018726;28;20069;-77
2023/09/03 01:21:18;;;;;;;22.73;14.10;;;;;;;17.11;100.00;-18487.78;5024563;28;20151;-78
2023/09/03 01:24:18;;;;;;;19.98;13.73;;;;;;;17.12;100.00;-18488.06;5023811;28;20056;-77
2023/09/03 01:27:02;;;;;;;24.48;15.13;;;;;;;17.06;100.00;-18486.41;4980297;28;20037;-77
2023/09/03 01:29:28;;;;;;;25.70;15.10;;;;;;;16.95;100.00;-18483.53;5002512;28;20053;-78
2023/09/03 01:31:56;;;;;;;22.45;14.88;;;;;;;16.96;100.00;-18483.69;5022511;28;20051;-78
2023/09/03 01:34:22;;;;;;;22.27;14.88;;;;;;;16.97;100.00;-18483.94;5025304;28;20052;-77
2023/09/03 01:36:48;;;;;;;24.50;15.35;;;;;;;16.90;100.00;-18482.19;5025865;28;20033;-77
2023/09/03 01:39:16;;;;;;;24.80;15.65;;;;;;;16.83;100.00;-18480.41;5007705;28;20468;-77
2023/09/03 01:41:41;;;;;;;22.17;14.48;;;;;;;16.93;100.00;-18483.00;5024344;28;20050;-77
2023/09/03 01:44:07;;;;;;;22.35;14.25;;;;;;;16.88;100.00;-18481.63;5024092;28;20040;-77
2023/09/03 01:46:44;;;;;;;22.10;14.50;;;;;;;16.88;100.00;-18481.75;5022485;28;20524;-78
2023/09/03 01:49:31;;;;;;;21.00;14.35;;;;;;;16.87;100.00;-18481.34;5024183;28;20501;-77
2023/09/03 01:52:15;;;;;;;20.90;14.15;;;;;;;16.86;100.00;-18481.09;5018480;28;20037;-77
2023/09/03 01:54:48;;;;;;;21.40;13.63;;;;;;;16.89;100.00;-18481.91;5022273;28;20061;-77
2023/09/03 01:57:27;;;;;;;24.42;15.07;;;;;;;16.53;100.00;-18472.19;5023677;28;20455;-77
2023/09/03 01:59:55;;;;;;;22.08;14.57;;;;;;;16.60;100.00;-18474.13;5024463;28;20041;-78
2023/09/03 02:02:21;;;;;;;27.40;15.48;;;;;;;16.67;100.00;-18476.16;5025781;28;20049;-77
2023/09/03 02:04:47;;;;;;;25.70;14.90;;;;;;;16.71;100.00;-18477.13;5024916;28;20048;-77
2023/09/03 02:07:12;;;;;;;21.95;13.68;;;;;;;16.63;100.00;-18475.06;5007663;28;20056;-77
2023/09/03 02:09:38;;;;;;;24.63;15.13;;;;;;;16.63;100.00;-18475.06;5018985;28;20045;-77
2023/09/03 02:12:05;;;;;;;23.55;14.50;;;;;;;16.53;100.00;-18472.19;5024708;28;20112;-77
2023/09/03 02:14:31;;;;;;;22.95;14.38;;;;;;;16.49;100.00;-18471.09;5021041;28;20099;-77
2023/09/03 02:16:56;;;;;;;23.80;14.38;;;;;;;16.56;100.00;-18473.16;5020666;28;20057;-77
2023/09/03 02:19:22;;;;;;;24.60;14.60;;;;;;;16.45;100.00;-18470.28;5022700;28;20069;-77
2023/09/03 02:21:48;;;;;;;25.33;15.75;;;;;;;16.49;100.00;-18471.25;5005368;28;20045;-78
2023/09/03 02:24:13;;;;;;;27.23;15.65;;;;;;;16.44;100.00;-18470.00;5025141;28;20635;-77
2023/09/03 02:26:43;;;;;;;26.73;15.95;;;;;;;16.50;100.00;-18471.38;5021738;28;20496;-78
2023/09/03 02:29:09;;;;;;;24.60;16.52;;;;;;;16.49;100.00;-18471.25;5007415;28;20116;-77
2023/09/03 02:31:35;;;;;;;25.55;15.05;;;;;;;16.38;100.00;-18468.25;4999756;28;20121;-77
2023/09/03 02:34:02;;;;;;;26.42;14.73;;;;;;;16.36;100.00;-18467.81;5006569;28;20120;-78
2023/09/03 02:36:28;;;;;;;29.90;16.60;;;;;;;16.39;100.00;-18468.50;5023731;28;20049;-77
2023/09/03 02:39:00;;;;;;;25.88;16.10;;;;;;;16.35;100.00;-18467.56;5020402;28;20490;-77
2023/09/03 02:41:26;;;;;;;27.42;15.55;;;;;;;16.37;100.00;-18468.09;5005146;28;20042;-77
2023/09/03 02:43:52;;;;;;;24.63;15.70;;;;;;;16.31;100.00;-18466.31;5023570;28;20049;-76
2023/09/03 02:46:17;;;;;;;22.98;14.98;;;;;;;16.35;100.00;-18467.41;5023551;28;20610;-77
2023/09/03 02:48:42;;;;;;;26.15;15.75;;;;;;;15.93;100.00;-18456.34;5022005;28;20064;-77
2023/09/03 02:51:08;;;;;;;27.40;15.73;;;;;;;16.06;100.00;-18459.75;5004700;28;20547;-77
2023/09/03 02:53:33;;;;;;;28.33;15.35;;;;;;;16.10;100.00;-18460.84;5023797;28;20759;-76
2023/09/03 02:55:58;;;;;;;30.10;17.23;;;;;;;16.09;100.00;-18460.44;5006292;28;20045;-77
2023/09/03 02:58:24;;;;;;;24.63;15.63;;;;;;;16.00;100.00;-18458.13;5015810;28;20056;-77
2023/09/03 03:00:50;;;;;;;25.55;15.02;;;;;;;16.06;100.00;-18459.63;5024132;28;20049;-77
2023/09/03 03:03:15;;;;;;;28.42;16.85;;;;;;;15.99;100.00;-18458.00;5006990;28;20045;-77
2023/09/03 03:05:40;;;;;;;26.38;16.13;;;;;;;16.05;100.00;-18459.34;5023637;28;20049;-77
2023/09/03 03:08:08;;;;;;;23.77;15.80;;;;;;;16.02;100.00;-18458.66;5025068;28;20673;-77
2023/09/03 03:10:33;;;;;;;27.48;16.48;;;;;;;16.12;100.00;-18461.28;5024375;28;20045;-77
2023/09/03 03:12:59;;;;;;;28.05;17.15;;;;;;;16.12;100.00;-18461.28;5022229;28;20045;-77
2023/09/03 03:15:24;;;;;;;27.60;16.33;;;;;;;16.17;100.00;-18462.63;5006084;28;20049;-76
2023/09/03 03:17:49;;;;;;;23.55;15.77;;;;;;;16.21;100.00;-18463.88;5023351;28;20095;-76
2023/09/03 03:20:15;;;;;;;25.10;15.35;;;;;;;16.16;100.00;-18462.50;5002901;28;21010;-77
2023/09/03 03:22:40;;;;;;;24.70;14.80;;;;;;;16.15;100.00;-18462.22;5022772;28;20049;-76
2023/09/03 03:25:06;;;;;;;27.63;17.10;;;;;;;16.10;100.00;-18460.72;5022934;28;20571;-77
2023/09/03 03:27:31;;;;;;;28.35;18.05;;;;;;;16.07;100.00;-18460.03;5023130;28;20045;-78
2023/09/03 03:29:57;;;;;;;31.60;17.67;;;;;;;16.14;100.00;-18461.81;5022136;28;20045;-77
2023/09/03 03:32:22;;;;;;;26.70;17.90;;;;;;;16.12;100.00;-18461.41;5021660;28;20065;-77
2023/09/03 03:34:48;;;;;;;28.80;16.52;;;;;;;16.07;100.00;-18459.91;5025836;28;20095;-77
2023/09/03 03:37:13;;;;;;;28.27;17.05;;;;;;;16.07;100.00;-18459.91;5026038;28;20524;-76
2023/09/03 03:39:38;;;;;;;31.45;18.85;;;;;;;15.93;100.00;-18456.34;5027982;28;20140;-77
2023/09/03 03:42:04;;;;;;;29.13;17.42;;;;;;;15.94;100.00;-18456.63;5027720;28;20041;-76
2023/09/03 03:44:30;;;;;;;28.02;16.83;;;;;;;15.92;100.00;-18456.06;5026178;28;20053;-76
2023/09/03 03:46:56;;;;;;;29.83;16.58;;;;;;;15.96;100.00;-18457.16;5003280;28;20044;-77
2023/09/03 03:49:21;;;;;;;27.00;15.82;;;;;;;16.01;100.00;-18458.53;5028203;28;20045;-77
2023/09/03 03:51:47;;;;;;;28.95;16.42;;;;;;;15.97;100.00;-18457.31;5019751;28;20922;-76
2023/09/03 03:54:12;;;;;;;28.00;16.90;;;;;;;16.02;100.00;-18458.81;5005408;28;20049;-77
2023/09/03 03:56:37;;;;;;;24.48;16.05;;;;;;;15.87;100.00;-18454.56;5006470;28;20077;-76
2023/09/03 03:59:03;;;;;;;28.17;17.80;;;;;;;15.86;100.00;-18454.44;5026634;28;20524;-77
2023/09/03 04:01:28;;;;;;;29.13;17.05;;;;;;;15.71;100.00;-18450.47;5007676;28;20045;-76
2023/09/03 04:03:55;;;;;;;28.05;15.95;;;;;;;15.57;100.00;-18446.78;5026458;28;20046;-77
2023/09/03 04:06:21;;;;;;;30.98;16.25;;;;;;;15.61;100.00;-18447.59;5026237;28;20049;-77
2023/09/03 04:08:47;;;;;;;26.15;16.85;;;;;;;15.60;100.00;-18447.31;5026725;28;20400;-77
2023/09/03 04:11:15;;;;;;;25.95;15.88;;;;;;;15.63;100.00;-18448.13;5014016;28;20037;-77
2023/09/03 04:13:41;;;;;;;26.37;15.60;;;;;;;15.52;100.00;-18445.41;5026661;28;20045;-77
2023/09/03 04:16:09;;;;;;;27.20;15.52;;;;;;;15.32;100.00;-18440.06;5024287;28;20358;-77
2023/09/03 04:18:35;;;;;;;24.27;16.15;;;;;;;15.20;100.00;-18436.66;5025835;28;20681;-76
2023/09/03 04:21:00;;;;;;;24.08;15.93;;;;;;;15.30;100.00;-18439.53;5026640;28;20033;-76
2023/09/03 04:23:26;;;;;;;28.15;17.10;;;;;;;15.31;100.00;-18439.66;5025119;28;20478;-77
2023/09/03 04:25:52;;;;;;;24.50;15.57;;;;;;;15.27;100.00;-18438.56;5024567;28;20049;-77
2023/09/03 04:28:21;;;;;;;26.98;16.58;;;;;;;15.23;100.00;-18437.47;5027854;28;20041;-77
2023/09/03 04:30:51;;;;;;;28.23;17.60;;;;;;;15.23;100.00;-18437.47;5025851;28;20041;-77
2023/09/03 04:33:16;;;;;;;25.90;16.42;;;;;;;15.22;100.00;-18437.19;5021886;28;20042;-77
2023/09/03 04:35:42;;;;;;;23.52;15.15;;;;;;;15.19;100.00;-18436.38;5024528;28;20134;-77
2023/09/03 04:38:08;;;;;;;27.25;15.75;;;;;;;14.99;100.00;-18431.19;5027334;28;20049;-77
2023/09/03 04:40:34;;;;;;;26.08;16.00;;;;;;;14.95;100.00;-18429.94;5026182;28;20045;-77
2023/09/03 04:43:01;;;;;;;26.10;15.85;;;;;;;15.04;100.00;-18432.53;5019341;28;20034;-77
2023/09/03 04:45:26;;;;;;;27.55;16.15;;;;;;;14.96;100.00;-18430.34;5023336;28;20045;-76
2023/09/03 04:47:52;;;;;;;23.75;15.35;;;;;;;14.97;100.00;-18430.63;5009646;28;20547;-77
2023/09/03 04:50:17;;;;;;;28.60;17.45;;;;;;;15.08;100.00;-18433.63;5025855;28;20119;-76
2023/09/03 04:52:44;;;;;;;27.92;16.60;;;;;;;14.98;100.00;-18430.91;5022200;28;20042;-77
2023/09/03 04:55:10;;;;;;;26.40;16.17;;;;;;;15.04;100.00;-18432.53;5025574;28;20061;-77
2023/09/03 04:57:35;;;;;;;24.73;14.57;;;;;;;14.96;100.00;-18430.34;5024378;28;20677;-77
2023/09/03 05:00:01;;;;;;;25.52;15.88;;;;;;;15.02;100.00;-18432.00;5024134;28;20057;-76
2023/09/03 05:02:26;;;;;;;28.38;16.77;;;;;;;15.04;100.00;-18432.41;5009584;28;20056;-77
2023/09/03 05:04:51;;;;;;;29.17;17.30;;;;;;;14.96;100.00;-18430.22;5008543;28;20508;-77
2023/09/03 05:07:17;;;;;;;26.15;16.00;;;;;;;15.05;100.00;-18432.81;5006183;28;20952;-76
2023/09/03 05:09:42;;;;;;;25.10;15.18;;;;;;;15.03;100.00;-18432.28;5021828;28;20490;-77
2023/09/03 05:12:08;;;;;;;26.23;15.38;;;;;;;15.07;100.00;-18433.38;5019462;28;20629;-77
2023/09/03 05:14:33;;;;;;;26.20;16.30;;;;;;;14.85;100.00;-18427.34;5005532;28;20062;-77
2023/09/03 05:16:58;;;;;;;28.08;16.25;;;;;;;14.60;100.00;-18420.63;5025089;28;20457;-77
2023/09/03 05:19:24;;;;;;;27.55;15.63;;;;;;;14.63;100.00;-18421.59;5026662;28;20529;-76
2023/09/03 05:21:49;;;;;;;30.48;17.02;;;;;;;14.70;100.00;-18423.25;5024252;28;20048;-77
2023/09/03 05:24:15;;;;;;;28.50;16.98;;;;;;;14.78;100.00;-18425.56;5023011;28;20045;-77
2023/09/03 05:26:40;;;;;;;24.75;16.25;;;;;;;14.69;100.00;-18423.09;5023413;28;20460;-76
2023/09/03 05:29:06;;;;;;;29.90;17.83;;;;;;;14.75;100.00;-18424.75;5025512;28;20104;-77
2023/09/03 05:31:31;;;;;;;29.92;17.17;;;;;;;14.82;100.00;-18426.66;5023897;28;20528;-77
2023/09/03 05:33:57;;;;;;;32.38;16.85;;;;;;;14.78;100.00;-18425.44;5015418;28;20071;-76
2023/09/03 05:36:22;;;;;;;31.30;18.05;;;;;;;14.91;100.00;-18428.84;5007265;28;20141;-77
2023/09/03 05:38:48;;;;;;;31.08;17.80;;;;;;;14.96;100.00;-18430.34;5024818;28;20075;-77
2023/09/03 05:41:14;;;;;;;27.38;16.80;;;;;;;14.97;100.00;-18430.50;5006010;28;20087;-77
2023/09/03 05:43:39;;;;;;;28.35;16.58;;;;;;;15.01;100.00;-18431.72;5019977;28;20050;-77
2023/09/03 05:46:05;;;;;;;32.67;18.00;;;;;;;15.07;100.00;-18433.38;5022987;28;20052;-76
2023/09/03 05:48:30;;;;;;;30.48;18.00;;;;;;;15.06;100.00;-18432.97;5022816;28;20050;-76
2023/09/03 05:51:03;;;;;;;28.98;16.70;;;;;;;14.99;100.00;-18431.19;5024248;28;20099;-77
2023/09/03 05:53:29;;;;;;;30.42;18.00;;;;;;;15.05;100.00;-18432.69;5005821;28;20049;-77
2023/09/03 05:56:06;;;;;;;30.88;18.67;;;;;;;15.17;100.00;-18435.97;5021179;28;20377;-77
2023/09/03 05:58:32;;;;;;;31.23;18.67;;;;;;;15.21;100.00;-18436.94;5023218;28;20052;-77
2023/09/03 06:00:58;;;;;;;30.67;17.95;;;;;;;15.29;100.00;-18439.25;5021843;28;20813;-77
2023/09/03 06:03:23;;;;;;;30.58;17.55;;;;;;;15.40;100.00;-18442.13;5004879;28;20136;-77
2023/09/03 06:05:49;;;;;;;31.45;18.63;;;;;;;15.49;100.00;-18444.59;5023923;28;20473;-76
2023/09/03 06:08:14;;;;;;;34.05;18.73;;;;;;;15.66;100.00;-18448.97;5023598;28;20053;-76
2023/09/03 06:10:41;;;;;;;35.50;19.88;;;;;;;15.72;100.00;-18450.59;5022534;28;20572;-77
2023/09/03 06:13:06;;;;;;;34.50;19.50;;;;;;;15.62;100.00;-18448.00;5021482;28;20042;-76
2023/09/03 06:15:32;;;;;;;29.58;17.95;;;;;;;15.58;100.00;-18447.03;5017664;28;20623;-76
2023/09/03 06:17:57;;;;;;;34.35;18.77;;;;;;;15.58;100.00;-18447.03;5022606;28;20610;-76
2023/09/03 06:20:24;;;;;;;30.35;18.65;;;;;;;15.50;100.00;-18444.84;5023733;28;20068;-76
2023/09/03 06:22:49;;;;;;;34.33;20.05;;;;;;;15.56;100.00;-18446.50;5023027;28;20033;-76
2023/09/03 06:25:15;;;;;;;36.97;19.73;;;;;;;15.71;100.00;-18450.34;5021408;28;20402;-76
2023/09/03 06:27:40;;;;;;;37.63;21.25;;;;;;;15.82;100.00;-18453.19;5022863;28;20045;-76
2023/09/03 06:30:07;;;;;;;38.97;21.17;;;;;;;15.96;100.00;-18457.03;5023424;28;20057;-75
2023/09/03 06:32:32;;;;;;;34.58;20.52;;;;;;;16.04;100.00;-18459.22;5022644;28;20095;-76
2023/09/03 06:34:57;;;;;;;32.80;19.00;;;;;;;16.14;100.00;-18461.81;5021925;28;20521;-76
2023/09/03 06:37:23;;;;;;;39.00;23.75;;;;;;;16.30;100.00;-18466.19;5023562;28;20452;-76
2023/09/03 06:39:48;;;;;;;39.03;23.65;;;;;;;16.40;100.00;-18468.94;5015812;28;20049;-76
2023/09/03 06:42:13;;;;;;;47.47;24.63;;;;;;;16.33;100.00;-18466.88;5022820;28;20120;-76
2023/09/03 06:44:39;;;;;;;43.75;24.75;;;;;;;16.39;100.00;-18468.66;4998639;28;20513;-76
2023/09/03 06:47:04;;;;;;;44.83;24.95;;;;;;;16.50;100.00;-18471.53;5025146;28;20492;-76
2023/09/03 06:49:29;;;;;;;39.35;23.90;;;;;;;16.60;100.00;-18474.13;5006581;28;20148;-76
2023/09/03 06:51:55;;;;;;;42.55;24.95;;;;;;;16.67;100.00;-18476.16;5004856;28;20033;-76
2023/09/03 06:54:20;;;;;;;44.13;24.08;;;;;;;16.83;100.00;-18480.25;5023196;28;20394;-76
2023/09/03 06:56:45;;;;;;;42.42;24.50;;;;;;;16.91;100.00;-18482.59;5024007;28;20050;-76
2023/09/03 06:59:11;;;;;;;44.08;26.10;;;;;;;16.99;100.00;-18484.50;5022915;28;20469;-76
2023/09/03 07:01:37;;;;;;;44.80;23.65;;;;;;;17.02;100.00;-18485.44;5025338;28;20088;-75
2023/09/03 07:04:02;;;;;;;43.08;23.15;;;;;;;17.11;100.00;-18487.91;5019839;28;20046;-76
2023/09/03 07:06:27;;;;;;;45.35;24.52;;;;;;;17.26;100.00;-18491.88;5013732;28;20041;-76
2023/09/03 07:08:53;;;;;;;43.92;25.98;;;;;;;17.50;100.00;-18498.16;5024883;28;20046;-76
2023/09/03 07:11:19;;;;;;;44.08;26.05;;;;;;;17.56;100.00;-18499.78;5029231;28;20045;-75
2023/09/03 07:13:44;;;;;;;44.08;25.42;;;;;;;17.71;100.00;-18503.75;5021849;28;20396;-76
2023/09/03 07:16:10;;;;;;;42.33;25.45;;;;;;;17.89;100.00;-18508.66;5010281;28;20402;-76
2023/09/03 07:18:35;;;;;;;40.75;23.85;;;;;;;17.99;100.00;-18511.25;5029075;28;20091;-76
2023/09/03 07:21:06;;;;;;;38.72;22.55;;;;;;;18.02;100.00;-18512.22;5028229;28;20029;-76
2023/09/03 07:23:32;;;;;;;35.88;22.05;;;;;;;18.14;100.00;-18515.22;5012868;28;20044;-76
2023/09/03 07:26:04;;;;;;;36.10;23.92;;;;;;;18.40;100.00;-18522.16;5027461;28;20115;-76
2023/09/03 07:28:30;;;;;;;34.50;22.50;;;;;;;18.39;100.00;-18522.03;5026946;28;20116;-77
2023/09/03 07:30:55;;;;;;;31.95;20.98;;;;;;;18.34;100.00;-18520.53;5025154;28;20083;-76
2023/09/03 07:33:21;;;;;;;30.15;20.40;;;;;;;18.54;100.00;-18525.84;5027681;28;20049;-77
2023/09/03 07:35:46;;;;;;;33.33;22.77;;;;;;;18.58;100.00;-18526.94;5007675;28;20042;-77
2023/09/03 07:38:11;;;;;;;32.75;20.70;;;;;;;18.60;100.00;-18527.63;5028246;28;20144;-76
2023/09/03 07:40:40;;;;;;;33.83;21.20;;;;;;;18.69;100.00;-18529.94;5029048;28;20037;-77
2023/09/03 07:43:05;;;;;;;34.23;22.60;;;;;;;18.88;100.00;-18535.00;5013114;28;20279;-77
2023/09/03 07:45:31;;;;;;;29.58;20.67;;;;;;;18.83;100.00;-18533.63;5020308;28;20049;-76
2023/09/03 07:47:56;;;;;;;27.25;19.63;;;;;;;19.09;100.00;-18540.72;5006400;28;20038;-76
2023/09/03 07:50:22;;;;;;;28.77;20.35;;;;;;;19.35;100.00;-18547.53;5023342;28;20046;-76
2023/09/03 07:52:48;;;;;;;30.50;20.75;;;;;;;19.42;100.00;-18549.44;5023775;28;20132;-76
2023/09/03 07:55:13;;;;;;;28.55;18.95;;;;;;;19.40;100.00;-18548.88;5009680;28;20133;-76
2023/09/03 07:57:38;;;;;;;25.08;18.70;;;;;;;19.65;100.00;-18555.41;5011877;28;20069;-77
2023/09/03 08:00:04;;;;;;;27.58;19.20;;;;;;;19.61;100.00;-18554.59;5009501;28;20037;-77
2023/09/03 08:02:30;;;;;;;27.35;17.17;;;;;;;19.79;100.00;-18559.38;5022790;28;20033;-77
2023/09/03 08:04:55;;;;;;;27.13;18.98;;;;;;;19.94;100.00;-18563.31;5024513;28;20117;-76
2023/09/03 08:07:21;;;;;;;24.98;17.15;;;;;;;19.90;100.00;-18562.22;5020174;28;20053;-76
2023/09/03 08:09:46;;;;;;;24.48;17.83;;;;;;;19.89;100.00;-18561.97;5024923;28;20042;-76
2023/09/03 08:12:12;;;;;;;24.02;16.50;;;;;;;19.92;100.00;-18562.78;5025545;28;20136;-76
2023/09/03 08:14:38;;;;;;;24.23;15.85;;;;;;;20.09;100.00;-18567.28;5022217;28;20659;-76
2023/09/03 08:17:04;;;;;;;22.25;14.77;;;;;;;20.11;100.00;-18567.69;5024214;28;20050;-78
2023/09/03 08:19:29;;;;;;;22.48;16.50;;;;;;;20.22;100.00;-18570.69;5009688;28;20067;-77
2023/09/03 08:21:55;;;;;;;18.98;15.43;;;;;;;20.20;100.00;-18570.13;5025200;28;20037;-75
2023/09/03 08:24:20;;;;;;;19.55;13.93;;;;;;;20.25;100.00;-18571.50;5026771;28;20052;-76
2023/09/03 08:26:48;;;;;;;19.00;12.57;;;;;;;20.44;100.00;-18576.66;5028510;28;20171;-76
2023/09/03 08:29:13;;;;;;;17.15;11.55;;;;;;;20.43;100.00;-18576.41;5026106;28;20046;-75
2023/09/03 08:31:39;;;;;;;14.15;11.00;;;;;;;20.68;100.00;-18582.94;5008567;28;20046;-76
2023/09/03 08:34:04;;;;;;;14.13;9.27;;;;;;;20.89;100.00;-18588.63;5017102;28;20052;-76
2023/09/03 08:36:30;;;;;;;18.23;10.65;;;;;;;21.03;100.00;-18592.19;5006387;28;20045;-76
2023/09/03 08:38:55;;;;;;;13.50;8.85;;;;;;;21.23;100.00;-18597.47;5027937;28;20068;-76
2023/09/03 08:41:22;;;;;;;11.00;8.43;;;;;;;21.37;100.00;-18601.41;5026496;28;20085;-77
2023/09/03 08:43:52;;;;;;;10.35;7.45;;;;;;;21.34;100.00;-18600.47;5013045;28;20037;-76
2023/09/03 08:46:19;;;;;;;10.80;7.80;;;;;;;21.48;100.00;-18604.16;5022131;28;20036;-77
2023/09/03 08:48:47;;;;;;;10.27;7.88;;;;;;;21.79;100.00;-18612.56;5018386;28;20043;-76
2023/09/03 08:51:12;;;;;;;9.50;7.13;;;;;;;21.74;100.00;-18611.06;5027836;28;20321;-76
2023/09/03 08:53:39;;;;;;;9.70;6.82;;;;;;;21.77;100.00;-18612.03;5006488;28;20116;-76
2023/09/03 08:56:04;;;;;;;11.25;7.63;;;;;;;21.78;100.00;-18612.16;5022288;28;20037;-76
2023/09/03 08:58:29;;;;;;;11.30;7.00;;;;;;;21.82;100.00;-18613.25;5022903;28;20073;-76
2023/09/03 09:00:55;;;;;;;10.05;6.10;;;;;;;21.69;100.00;-18609.84;5006114;28;20048;-77
2023/09/03 09:03:24;;;;;;;11.50;7.20;;;;;;;21.82;100.00;-18613.38;5014648;28;20099;-76
2023/09/03 09:05:50;;;;;;;;;;;;;;;21.69;100.00;-18609.72;5026665;28;20065;-76
2023/09/03 09:08:16;;;;;;;8.93;5.28;;;;;;;21.83;100.00;-18613.66;5015851;28;19920;-77
2023/09/03 09:10:47;;;;;;;6.72;4.10;;;;;;;21.96;100.00;-18616.91;5017585;28;20038;-77
2023/09/03 09:13:16;;;;;;;6.05;4.28;;;;;;;21.99;100.00;-18617.88;5027654;28;20029;-76
2023/09/03 09:15:43;;;;;;;6.43;4.10;;;;;;;21.88;100.00;-18614.88;5028428;28;20047;-77
2023/09/03 09:18:09;;;;;;;8.77;4.20;;;;;;;21.96;100.00;-18616.91;5026941;28;20049;-77
2023/09/03 09:20:39;;;;;;;7.55;4.80;;;;;;;22.29;100.00;-18625.75;5028284;28;20041;-78
2023/09/03 09:23:05;;;;;;;7.53;4.20;;;;;;;22.40;100.00;-18628.59;5022969;28;20041;-78
2023/09/03 09:25:31;;;;;;;6.90;4.80;;;;;;;22.36;100.00;-18627.53;5012489;28;20053;-78
2023/09/03 09:28:07;;;;;;;7.45;4.72;;;;;;;22.22;100.00;-18623.84;5024264;28;20552;-77
2023/09/03 09:30:33;;;;;;;7.43;4.85;;;;;;;22.43;100.00;-18629.41;5024093;28;20476;-78
2023/09/03 09:33:06;;;;;;;8.23;4.93;;;;;;;22.46;100.00;-18630.22;5030319;28;20026;-77
2023/09/03 09:35:32;;;;;;;4.60;3.03;;;;;;;22.27;100.00;-18625.34;5014956;28;20684;-77
2023/09/03 09:38:06;;;;;;;5.97;4.60;;;;;;;22.28;100.00;-18625.47;5024215;28;20165;-77
2023/09/03 09:40:32;;;;;;;8.48;4.85;;;;;;;22.27;100.00;-18625.34;5022836;28;20520;-76
2023/09/03 09:43:00;;;;;;;6.13;3.88;;;;;;;22.42;100.00;-18629.16;5027727;28;20033;-77
2023/09/03 09:45:26;;;;;;;6.35;3.47;;;;;;;22.43;98.91;-18629.41;5019300;28;20057;-78
2023/09/03 09:48:09;;;;;;;6.40;3.17;;;;;;;22.30;100.00;-18626.03;5020630;28;20151;-77
2023/09/03 09:50:38;;;;;;;6.10;3.50;;;;;;;22.60;100.00;-18634.03;5007589;28;20050;-77
2023/09/03 09:53:05;;;;;;;5.82;3.53;;;;;;;22.67;100.00;-18635.78;5027718;28;20061;-77
2023/09/03 09:55:33;;;;;;;5.15;3.58;;;;;;;22.87;100.00;-18641.09;5001798;28;20040;-77
2023/09/03 09:58:00;;;;;;;4.70;2.50;;;;;;;22.93;100.00;-18642.72;5010604;28;20102;-77
2023/09/03 10:00:32;;;;;;;4.57;2.85;;;;;;;23.03;98.83;-18645.44;5010895;28;20052;-77
2023/09/03 10:02:58;;;;;;;5.32;3.40;;;;;;;23.10;99.81;-18647.19;5009018;28;20029;-77
2023/09/03 10:05:23;;;;;;;4.80;2.72;;;;;;;23.17;96.65;-18649.25;5004452;28;20050;-77
2023/09/03 10:07:49;;;;;;;6.07;3.03;;;;;;;23.28;98.09;-18651.94;5022642;28;20033;-77
2023/09/03 10:10:15;;;;;;;4.82;3.45;;;;;;;23.30;83.83;-18652.50;5007186;28;20041;-78
2023/09/03 10:12:40;;;;;;;4.57;2.45;;;;;;;23.38;96.88;-18654.66;5028655;28;20046;-78
2023/09/03 10:15:07;;;;;;;3.63;2.22;;;;;;;23.53;88.89;-18658.59;5011429;28;20041;-78
2023/09/03 10:17:34;;;;;;;4.93;2.10;;;;;;;23.30;86.14;-18652.63;5024344;28;20128;-76
2023/09/03 10:20:05;;;;;;;4.15;2.20;;;;;;;23.30;85.15;-18652.63;5025134;28;20441;-78
2023/09/03 10:22:31;;;;;;;5.13;2.22;;;;;;;23.38;87.46;-18654.66;5006793;28;20128;-78
2023/09/03 10:25:06;;;;;;;5.15;2.22;;;;;;;23.37;86.17;-18654.38;5023907;28;20065;-77
2023/09/03 10:27:35;;;;;;;3.08;1.48;;;;;;;23.50;84.17;-18657.91;5022125;28;20698;-78
2023/09/03 10:30:05;;;;;;;5.93;1.92;;;;;;;23.58;76.88;-18660.09;5019806;28;20033;-77
2023/09/03 10:32:32;;;;;;;3.00;1.60;;;;;;;23.54;72.52;-18659.00;5021574;28;20396;-77
2023/09/03 10:34:58;;;;;;;2.78;1.50;;;;;;;23.67;86.59;-18662.25;5023951;28;20370;-76
2023/09/03 10:37:37;;;;;;;3.42;1.40;;;;;;;23.81;78.57;-18666.19;5007317;28;20455;-77
2023/09/03 10:40:21;;;;;;;3.28;1.60;;;;;;;23.94;80.84;-18669.44;5023006;28;20064;-78
2023/09/03 10:42:51;;;;;;;2.88;1.40;;;;;;;24.10;75.32;-18673.91;4992949;28;20155;-77
2023/09/03 10:45:18;;;;;;;2.38;1.50;;;;;;;24.20;75.77;-18676.34;5023805;28;20034;-77
2023/09/03 10:48:00;;;;;;;3.40;1.60;;;;;;;24.20;73.84;-18676.50;5013535;28;20494;-77
2023/09/03 10:50:48;;;;;;;4.00;1.80;;;;;;;24.23;79.01;-18677.31;5006288;28;20045;-77
2023/09/03 10:53:42;;;;;;;3.30;1.33;;;;;;;24.18;69.20;-18675.94;5020435;28;20068;-78
2023/09/03 10:56:19;;;;;;;4.38;1.60;;;;;;;24.02;83.87;-18671.63;5017799;28;20095;-77
2023/09/03 10:58:57;;;;;;;3.97;1.90;;;;;;;24.08;72.84;-18673.25;5022493;28;20140;-77
2023/09/03 11:01:25;;;;;;;4.43;1.73;;;;;;;24.18;78.75;-18675.81;5007722;28;20045;-76
2023/09/03 11:03:52;;;;;;;3.55;1.60;;;;;;;24.14;69.88;-18674.88;5023655;28;20052;-77
2023/09/03 11:06:22;;;;;;;4.00;1.80;;;;;;;24.38;82.24;-18681.09;5023076;28;20140;-77